Latest Weather Observations for Degrussa Aerodrome

IDW60801

Issued at 10:23 pm WST Monday 29 November 2021 (issued every 10 minutes, with the page automatically refreshed every 10 minutes)

About weather observations | Map of weather stations | Latest weather observations for WA | Other Formats
Station Details ID: 507500 Name: DEGRUSSA AERODROME Lat: -25.56 Lon: 119.29 Height: 550.91 m
Data from the previous 72 hours. | See also: Recent months for locations in Western Australia
Date/Time
WST
Temp
°C
App
Temp
°C
Dew
Point
°C
Rel
Hum
%
Delta-T
°C
Wind Press
QNH
hPa
Press
MSL
hPa
Rain since
9am
mm
Dir  Spd
km/h
Gust
km/h
Spd
kts
Gust
kts
29/10:00pm 27.6 25.4 5.2 24 11.8 SE 6 7 3 4 1011.5 1007.8 0.0
29/09:30pm 28.4 26.2 5.3 23 12.3 ESE 6 7 3 4 1011.5 1007.8 0.0
29/09:00pm 29.9 26.9 0.5 15 14.5 SE 6 6 3 3 1011.5 1007.8 0.0
29/08:30pm 30.6 27.6 1.9 16 14.6 S 7 9 4 5 1011.5 1007.8 0.0
29/08:00pm 32.0 28.2 -0.9 12 16.1 S 9 9 5 5 1011.2 1007.6 0.0
29/07:30pm 33.4 29.6 -1.0 11 17.0 SSW 9 11 5 6 1011.0 1007.4 0.0
29/07:00pm 34.9 30.3 -4.2 8 18.5 SW 11 15 6 8 1010.7 1007.1 0.0
29/06:30pm 36.2 31.5 -5.0 7 19.4 SW 11 19 6 10 1010.4 1006.8 0.0
29/06:00pm 36.8 31.4 -4.6 7 19.7 SSW 15 22 8 12 1010.1 1006.4 0.0
29/05:30pm 37.3 31.2 -4.2 7 19.9 SW 19 28 10 15 1009.9 1006.2 0.0
29/05:00pm 37.4 33.5 -4.2 7 20.0 SSE 7 13 4 7 1009.8 1006.1 0.0
29/04:30pm 37.2 32.4 -2.5 8 19.6 W 13 22 7 12 1009.8 1006.1 0.0
29/04:00pm 37.5 33.1 -2.3 8 19.8 S 11 22 6 12 1009.9 1006.2 0.0
29/03:30pm 37.3 33.7 -2.4 8 19.6 WNW 7 17 4 9 1010.3 1006.6 0.0
29/03:00pm 36.8 33.5 0.2 10 18.8 ENE 7 17 4 9 1010.6 1007.0 0.0
29/02:30pm 36.9 32.1 -2.7 8 19.4 SSW 13 24 7 13 1010.9 1007.3 0.0
29/02:00pm 36.3 33.5 -0.2 10 18.6 NNE 4 7 2 4 1011.2 1007.6 0.0
29/01:30pm 35.7 31.0 -2.0 9 18.6 WSW 13 22 7 12 1011.9 1008.2 0.0
29/01:00pm 35.9 32.0 0.9 11 18.1 NNW 11 19 6 10 1012.1 1008.5 0.0
29/12:30pm 35.4 32.5 1.7 12 17.6 NW 6 11 3 6 1012.6 1009.0 0.0
29/12:00pm 34.9 31.4 -2.6 9 18.2 E 6 11 3 6 1013.0 1009.4 0.0
29/11:30am 34.8 29.6 -2.7 9 18.2 SW 15 32 8 17 1013.6 1009.9 0.0
29/11:00am 35.0 30.8 -1.1 10 18.0 SE 11 17 6 9 1014.1 1010.5 0.0
29/10:30am 34.0 30.6 -0.6 11 17.2 WNW 7 15 4 8 1014.5 1010.9 0.0
29/10:00am 34.0 31.0 0.6 12 17.0 SSW 6 13 3 7 1014.7 1011.1 0.0
29/09:30am 33.2 29.3 -1.2 11 16.9 NNE 9 26 5 14 1014.7 1011.1 0.0
29/09:00am 32.3 27.9 0.4 13 16.0 NE 13 22 7 12 1014.8 1011.2 0.0
29/08:30am 31.4 26.3 0.7 14 15.4 NE 17 22 9 12 1014.8 1011.2 0.0
29/08:00am 30.7 25.1 0.2 14 15.1 NE 19 24 10 13 1014.7 1011.1 0.0
29/07:30am 29.4 23.6 0.1 15 14.3 NE 20 28 11 15 1014.5 1010.9 0.0
29/07:00am 27.9 22.4 0.6 17 13.3 ENE 19 28 10 15 1014.3 1010.7 0.0
29/06:30am 25.7 20.8 1.8 21 11.7 ENE 17 24 9 13 1014.2 1010.6 0.0
29/06:00am 24.0 20.0 2.8 25 10.5 NE 13 19 7 10 1014.1 1010.5 0.0
29/05:30am 22.6 18.8 3.7 29 9.4 NE 13 17 7 9 1013.9 1010.3 0.0
29/05:00am 21.1 18.5 5.9 37 7.8 E 9 11 5 6 1013.6 1009.9 0.0
29/04:30am 21.1 18.7 7.0 40 7.4 E 9 11 5 6 1013.5 1009.8 0.0
29/04:00am 21.6 18.8 7.1 39 7.7 E 11 15 6 8 1013.1 1009.5 0.0
29/03:30am 21.5 19.3 7.7 41 7.4 E 9 13 5 7 1013.0 1009.4 0.0
29/03:00am 21.8 19.3 8.0 41 7.4 E 11 15 6 8 1012.9 1009.3 0.0
29/02:30am 22.4 19.9 6.6 36 8.3 E 9 13 5 7 1012.7 1009.1 0.0
29/02:00am 22.9 20.3 6.2 34 8.7 E 9 11 5 6 1012.8 1009.2 0.0
29/01:30am 23.4 20.4 5.8 32 9.2 E 11 13 6 7 1012.9 1009.3 0.0
29/01:00am 24.1 20.9 5.0 29 9.8 E 11 13 6 7 1013.0 1009.4 0.0
29/12:30am 24.3 21.5 5.1 29 9.9 ESE 9 11 5 6 1013.5 1009.8 0.0
29/12:00am 24.9 22.4 4.6 27 10.4 ESE 7 9 4 5 1013.8 1010.2 0.0
 
Date/Time
WST
Temp
°C
App
Temp
°C
Dew
Point
°C
Rel
Hum
%
Delta-T
°C
Wind Press
QNH
hPa
Press
MSL
hPa
Rain since
9am
mm
Dir  Spd
km/h
Gust
km/h
Spd
kts
Gust
kts
28/11:30pm 25.6 22.6 4.1 25 11.0 E 9 9 5 5 1014.0 1010.4 0.0
28/11:00pm 26.8 23.2 2.7 21 12.1 E 11 13 6 7 1014.1 1010.5 0.0
28/10:30pm 27.2 24.0 3.0 21 12.3 E 9 13 5 7 1014.3 1010.7 0.0
28/10:00pm 27.7 24.2 3.4 21 12.4 E 11 13 6 7 1014.3 1010.7 0.0
28/09:30pm 28.0 24.4 3.0 20 12.7 ENE 11 13 6 7 1014.3 1010.7 0.0
28/09:00pm 28.7 25.5 2.8 19 13.2 ENE 9 11 5 6 1014.1 1010.5 0.0
28/08:30pm 29.7 26.0 2.1 17 14.0 ENE 11 17 6 9 1014.0 1010.4 0.0
28/08:00pm 30.1 26.6 1.5 16 14.4 ENE 9 13 5 7 1013.8 1010.2 0.0
28/07:30pm 31.2 27.6 0.6 14 15.3 ENE 9 13 5 7 1013.6 1009.9 0.0
28/07:00pm 32.4 27.9 -0.6 12 16.3 E 13 17 7 9 1013.3 1009.6 0.0
28/06:30pm 33.4 28.8 -1.0 11 17.0 E 13 19 7 10 1013.0 1009.4 0.0
28/06:00pm 33.7 29.9 -0.8 11 17.1 NE 9 17 5 9 1012.7 1009.1 0.0
28/05:30pm 34.3 31.3 -1.7 10 17.7 SE 4 7 2 4 1012.5 1008.9 0.0
28/05:00pm 35.0 31.0 -2.6 9 18.3 SSE 9 17 5 9 1012.5 1008.9 0.0
28/04:30pm 34.6 30.5 -2.9 9 18.1 ENE 9 13 5 7 1012.5 1008.9 0.0
28/04:00pm 34.5 31.2 -1.5 10 17.7 SW 6 13 3 7 1012.7 1009.1 0.0
28/03:30pm 34.1 30.4 -3.2 9 17.8 W 7 11 4 6 1013.0 1009.4 0.0
28/03:00pm 34.8 31.1 -2.7 9 18.2 ESE 7 20 4 11 1013.4 1009.7 0.0
28/02:30pm 34.0 29.9 -3.3 9 17.8 SSE 9 20 5 11 1013.7 1010.1 0.0
28/02:00pm 33.6 29.4 -0.9 11 17.1 E 11 19 6 10 1013.9 1010.3 0.0
28/01:30pm 33.7 29.9 -0.8 11 17.1 SSE 9 24 5 13 1014.4 1010.8 0.0
28/01:00pm 32.6 29.1 -1.7 11 16.6 SSW 7 15 4 8 1014.8 1011.2 0.0
28/12:30pm 33.4 29.0 0.1 12 16.7 ESE 13 20 7 11 1015.2 1011.5 0.0
28/12:00pm 32.4 28.0 0.5 13 16.0 SE 13 24 7 13 1015.7 1012.1 0.0
28/11:30am 32.0 27.5 2.1 15 15.4 ESE 15 22 8 12 1016.2 1012.6 0.0
28/11:00am 30.8 26.1 3.0 17 14.4 E 17 24 9 13 1016.6 1013.0 0.0
28/10:30am 30.5 27.2 4.3 19 13.9 E 11 24 6 13 1017.2 1013.6 0.0
28/10:00am 29.4 25.6 4.1 20 13.2 ENE 13 26 7 14 1017.5 1013.9 0.0
28/09:30am 28.9 25.3 5.1 22 12.6 E 13 22 7 12 1017.8 1014.2 0.0
28/09:00am 27.4 22.5 5.1 24 11.7 E 20 26 11 14 1018.0 1014.4 0.0
28/08:30am 26.1 21.2 5.1 26 11.0 E 20 28 11 15 1018.2 1014.6 0.0
28/08:00am 25.2 19.6 5.4 28 10.3 E 24 37 13 20 1018.1 1014.5 0.0
28/07:30am 24.4 18.4 5.2 29 9.9 E 26 35 14 19 1018.1 1014.5 0.0
28/07:00am 23.6 17.5 5.0 30 9.5 E 26 39 14 21 1018.1 1014.5 0.0
28/06:30am 22.6 16.6 5.5 33 8.8 E 26 37 14 20 1017.8 1014.2 0.0
28/06:00am 21.7 17.3 6.4 37 8.0 E 19 28 10 15 1017.6 1014.0 0.0
28/05:30am 20.7 17.1 6.6 40 7.3 E 15 20 8 11 1017.2 1013.6 0.0
28/05:00am 20.3 16.4 7.0 42 6.9 ESE 17 19 9 10 1016.8 1013.2 0.0
28/04:30am 21.1 17.5 6.6 39 7.6 E 15 19 8 10 1016.6 1013.0 0.0
28/04:00am 21.6 17.5 6.3 37 7.9 E 17 22 9 12 1016.2 1012.6 0.0
28/03:30am 21.5 17.4 6.2 37 7.9 E 17 22 9 12 1016.1 1012.5 0.0
28/03:00am 21.9 17.3 5.8 35 8.3 E 19 22 10 12 1016.2 1012.6 0.0
28/02:30am 22.3 17.6 5.3 33 8.7 ESE 19 22 10 12 1016.2 1012.6 0.0
28/02:00am 22.2 18.4 6.0 35 8.4 ESE 15 19 8 10 1016.1 1012.5 0.0
28/01:30am 23.6 19.6 5.0 30 9.6 ESE 15 22 8 12 1015.9 1012.3 0.0
28/01:00am 22.9 19.5 5.8 33 8.9 E 13 17 7 9 1015.9 1012.3 0.0
28/12:30am 23.0 19.7 6.3 34 8.8 E 13 15 7 8 1016.3 1012.7 0.0
28/12:00am 23.4 20.1 6.2 33 9.0 ESE 13 17 7 9 1016.4 1012.8 0.0
 
Date/Time
WST
Temp
°C
App
Temp
°C
Dew
Point
°C
Rel
Hum
%
Delta-T
°C
Wind Press
QNH
hPa
Press
MSL
hPa
Rain since
9am
mm
Dir  Spd
km/h
Gust
km/h
Spd
kts
Gust
kts
27/11:30pm 24.1 20.6 5.5 30 9.7 E 13 15 7 8 1016.6 1013.0 0.0
27/11:00pm 25.2 21.1 4.3 26 10.7 E 15 19 8 10 1016.6 1013.0 0.0
27/10:30pm 24.7 21.8 6.4 31 9.7 ESE 11 13 6 7 1016.7 1013.1 0.0
27/10:00pm 25.2 22.6 5.9 29 10.2 ESE 9 13 5 7 1016.8 1013.2 0.0
27/09:30pm 26.1 22.9 5.1 26 11.0 ESE 11 13 6 7 1016.7 1013.1 0.0
27/09:00pm 26.9 23.5 4.0 23 11.8 ESE 11 13 6 7 1016.5 1012.9 0.0
27/08:30pm 27.1 24.6 4.8 24 11.7 ESE 7 9 4 5 1016.2 1012.6 0.0
27/08:00pm 28.4 25.1 2.6 19 13.1 E 9 11 5 6 1016.0 1012.4 0.0
27/07:30pm 29.2 25.8 1.7 17 13.8 E 9 13 5 7 1015.7 1012.1 0.0
27/07:00pm 30.2 25.9 0.7 15 14.6 ENE 13 19 7 10 1015.4 1011.8 0.0
27/06:30pm 31.1 26.3 0.5 14 15.2 E 15 24 8 13 1014.9 1011.3 0.0
27/06:00pm 31.6 26.8 -0.1 13 15.7 E 15 22 8 12 1014.6 1011.0 0.0
27/05:30pm 32.2 26.7 0.3 13 15.9 E 19 26 10 14 1014.3 1010.7 0.0
27/05:00pm 32.3 27.1 0.4 13 16.0 E 17 26 9 14 1014.2 1010.6 0.0
27/04:30pm 32.6 27.3 -0.5 12 16.4 E 17 24 9 13 1014.1 1010.5 0.0
27/04:00pm 32.7 26.9 -0.4 12 16.4 ESE 20 28 11 15 1014.3 1010.7 0.0
27/03:30pm 32.7 26.9 -0.4 12 16.4 ESE 20 35 11 19 1014.4 1010.8 0.0
27/03:00pm 32.1 26.5 0.2 13 15.9 E 19 32 10 17 1014.6 1011.0 0.0
27/02:30pm 32.1 27.1 1.3 14 15.6 ENE 17 30 9 16 1014.9 1011.3 0.0
27/02:00pm 31.7 26.2 1.9 15 15.2 ENE 20 30 11 16 1015.2 1011.5 0.0
27/01:30pm 31.4 25.6 -0.3 13 15.6 E 20 30 11 16 1015.6 1012.0 0.0
27/01:00pm 31.3 25.2 0.6 14 15.3 E 22 32 12 17 1016.0 1012.4 0.0
27/12:30pm 30.6 24.9 2.8 17 14.3 E 22 33 12 18 1016.4 1012.8 0.0
27/12:00pm 29.5 23.8 2.7 18 13.7 E 22 35 12 19 1016.9 1013.4 0.0
27/11:30am 29.4 23.3 2.6 18 13.7 E 24 39 13 21 1017.4 1013.8 0.0
27/11:00am 29.5 23.4 2.7 18 13.7 E 24 37 13 20 1018.0 1014.4 0.0
27/10:30am 28.2 22.3 3.8 21 12.6 E 24 33 13 18 1018.3 1014.7 0.0
27/10:00am 28.2 22.5 5.1 23 12.2 E 24 39 13 21 1018.7 1015.2 0.0
27/09:30am 26.8 20.8 5.1 25 11.4 E 26 35 14 19 1019.1 1015.5 0.0
27/09:00am 26.0 19.9 5.0 26 10.9 E 26 37 14 20 1019.3 1015.7 0.0
27/08:30am 25.5 19.8 5.1 27 10.6 ESE 24 33 13 18 1019.4 1015.8 0.0
27/08:00am 24.5 18.1 5.3 29 10.0 E 28 35 15 19 1019.6 1016.0 0.0
27/07:30am 23.6 17.2 5.0 30 9.6 E 28 39 15 21 1019.7 1016.1 0.0
27/07:00am 23.0 17.0 5.4 32 9.1 E 26 44 14 24 1019.6 1016.0 0.0
27/06:30am 22.0 15.3 5.4 34 8.5 E 30 41 16 22 1019.4 1015.8 0.0
27/06:00am 21.2 15.7 5.9 37 7.9 E 24 33 13 18 1019.3 1015.7 0.0
27/05:30am 20.9 15.4 6.1 38 7.6 E 24 32 13 17 1018.8 1015.3 0.0
27/05:00am 20.8 16.2 6.4 39 7.4 E 20 30 11 16 1018.4 1014.8 0.0
27/04:30am 21.4 16.3 6.1 37 7.9 E 22 32 12 17 1018.0 1014.4 0.0
27/04:00am 21.2 16.3 7.1 40 7.4 E 22 32 12 17 1017.6 1014.0 0.0
27/03:30am 20.7 17.4 9.6 49 6.1 ESE 17 24 9 13 1017.4 1013.8 0.0
27/03:00am 21.2 17.5 9.4 47 6.5 E 19 24 10 13 1017.1 1013.5 0.0
27/02:30am 21.6 18.0 9.8 47 6.5 E 19 22 10 12 1016.8 1013.2 0.0
27/02:00am 21.3 18.5 9.9 48 6.3 ESE 15 20 8 11 1016.7 1013.1 0.0
27/01:30am 21.5 19.0 9.7 47 6.5 ESE 13 19 7 10 1016.7 1013.1 0.0
27/01:00am 21.2 19.3 10.4 50 6.0 SE 11 15 6 8 1016.7 1013.1 0.0
27/12:30am 21.7 20.1 10.2 48 6.4 ESE 9 11 5 6 1016.8 1013.2 0.0
27/12:00am 22.0 20.9 10.5 48 6.5 ESE 7 9 4 5 1016.9 1013.4 0.0
 
Date/Time
WST
Temp
°C
App
Temp
°C
Dew
Point
°C
Rel
Hum
%
Delta-T
°C
Wind Press
QNH
hPa
Press
MSL
hPa
Rain since
9am
mm
Dir  Spd
km/h
Gust
km/h
Spd
kts
Gust
kts
26/11:30pm 22.7 21.5 10.2 45 7.0 ESE 7 9 4 5 1016.9 1013.4 0.0
26/11:00pm 23.3 21.8 9.3 41 7.7 ESE 7 9 4 5 1017.2 1013.6 0.0
26/10:30pm 24.1 22.1 8.5 37 8.6 E 9 13 5 7 1017.4 1013.8 0.0

Other formats

Comma delimited format used in spreadsheet applications
http://www.bom.gov.au/fwo/IDW60801/IDW60801.99400.axf

JavaScript Object Notation format (JSON) in row-major order
http://www.bom.gov.au/fwo/IDW60801/IDW60801.99400.json

Data quality

Most of these data are generated automatically and are frequently updated. Quality checks on data are not normally performed. It is possible for incorrect values to appear. Refer to information at About Latest Weather Observations and please check the disclaimer before using these data.